Time;durP1;ratioP1;P1;durP2;ratioP2;P2;SDS_P1;SDS_P2;PMS_P1;PMS_P2;Temp;Humidity;BMP_temperature;BMP_pressure;BME280_temperature;BME280_humidity;BME280_pressure;Samples;Min_cycle;Max_cycle;Signal;HPM_P1;HPM_P2
2023/05/11 00:02:13;;;;;;;1.50;1.30;;;14.50;99.90;;;;;;5093122;28;20325;-64
2023/05/11 00:04:40;;;;;;;5.47;1.43;;;14.60;99.90;;;;;;5093329;28;20219;-63
2023/05/11 00:07:07;;;;;;;1.43;1.07;;;14.60;99.90;;;;;;5093338;28;20204;-64
2023/05/11 00:09:34;;;;;;;3.17;0.97;;;14.60;99.90;;;;;;5093495;28;20232;-63
2023/05/11 00:12:01;;;;;;;1.20;0.90;;;14.50;99.90;;;;;;5093064;28;20204;-64
2023/05/11 00:14:29;;;;;;;2.47;0.93;;;14.50;99.90;;;;;;5093251;28;20208;-62
2023/05/11 00:16:56;;;;;;;2.27;1.00;;;14.50;99.90;;;;;;5093060;28;20208;-63
2023/05/11 00:19:23;;;;;;;1.93;1.30;;;14.50;99.90;;;;;;5093152;28;20228;-63
2023/05/11 00:21:50;;;;;;;2.90;1.10;;;14.50;99.90;;;;;;5093135;28;20204;-64
2023/05/11 00:24:16;;;;;;;4.03;0.87;;;14.50;99.90;;;;;;5092628;28;20200;-63
2023/05/11 00:26:43;;;;;;;1.33;0.90;;;14.40;99.90;;;;;;5093091;28;20261;-62
2023/05/11 00:29:09;;;;;;;1.30;0.83;;;14.40;99.90;;;;;;5092726;28;20231;-63
2023/05/11 00:31:37;;;;;;;1.90;1.10;;;14.40;99.90;;;;;;5093004;28;20257;-64
2023/05/11 00:34:04;;;;;;;5.33;1.30;;;14.40;99.90;;;;;;5093272;28;20208;-63
2023/05/11 00:36:32;;;;;;;2.57;0.90;;;14.40;99.90;;;;;;5092996;28;20211;-64
2023/05/11 00:38:58;;;;;;;2.13;1.13;;;14.40;99.90;;;;;;5092581;28;20255;-64
2023/05/11 00:41:25;;;;;;;3.17;1.17;;;14.40;99.90;;;;;;5092431;28;20211;-63
2023/05/11 00:43:52;;;;;;;1.37;1.17;;;14.40;99.90;;;;;;5092474;28;20675;-64
2023/05/11 00:46:18;;;;;;;0.80;0.80;;;14.40;99.90;;;;;;5092612;28;20254;-63
2023/05/11 00:48:47;;;;;;;1.30;0.90;;;14.30;99.90;;;;;;5092483;28;20228;-64
2023/05/11 00:51:15;;;;;;;2.20;1.10;;;14.30;99.90;;;;;;5092243;28;20294;-64
2023/05/11 00:53:41;;;;;;;2.27;1.00;;;14.30;99.90;;;;;;5092485;28;20215;-63
2023/05/11 00:56:08;;;;;;;2.13;0.90;;;14.30;99.90;;;;;;5092343;28;20632;-63
2023/05/11 00:58:36;;;;;;;1.40;0.80;;;14.20;99.90;;;;;;5092206;28;20224;-63
2023/05/11 01:01:03;;;;;;;2.37;0.70;;;14.20;99.90;;;;;;5092384;28;20292;-63
2023/05/11 01:03:30;;;;;;;4.00;1.00;;;14.10;99.90;;;;;;5092378;28;20626;-64
2023/05/11 01:06:07;;;;;;;3.00;0.93;;;14.10;99.90;;;;;;5092239;28;20204;-63
2023/05/11 01:08:41;;;;;;;1.73;0.77;;;14.10;99.90;;;;;;5092196;28;20577;-63
2023/05/11 01:11:13;;;;;;;3.00;0.70;;;14.00;99.90;;;;;;5091880;28;20204;-64
2023/05/11 01:13:45;;;;;;;2.53;0.97;;;14.00;99.90;;;;;;5092303;28;20200;-65
2023/05/11 01:16:18;;;;;;;1.90;0.90;;;13.90;99.90;;;;;;5092210;28;20208;-62
2023/05/11 01:18:51;;;;;;;3.63;1.10;;;13.90;99.90;;;;;;5092001;28;20304;-62
2023/05/11 01:21:19;;;;;;;4.97;0.80;;;14.00;99.90;;;;;;5092242;28;20250;-63
2023/05/11 01:24:25;;;;;;;1.43;0.80;;;13.90;99.90;;;;;;5092255;28;20212;-63
2023/05/11 01:27:11;;;;;;;3.70;0.80;;;13.90;99.90;;;;;;5091958;28;20203;-62
2023/05/11 01:29:52;;;;;;;2.03;0.90;;;13.90;99.90;;;;;;5091706;28;20216;-63
2023/05/11 01:32:24;;;;;;;2.20;1.00;;;13.90;99.90;;;;;;5091799;28;20208;-63
2023/05/11 01:35:00;;;;;;;1.83;0.93;;;13.80;99.90;;;;;;5092129;28;20212;-62
2023/05/11 01:37:27;;;;;;;1.80;0.80;;;13.80;99.90;;;;;;5095544;28;20579;-62
2023/05/11 01:39:57;;;;;;;3.27;0.77;;;13.80;99.90;;;;;;5095962;28;20285;-63
2023/05/11 01:42:28;;;;;;;2.83;0.80;;;13.80;99.90;;;;;;5095781;28;20207;-63
2023/05/11 01:44:57;;;;;;;2.40;1.07;;;13.80;99.90;;;;;;5096389;28;20204;-62
2023/05/11 01:47:28;;;;;;;5.23;0.80;;;13.80;99.90;;;;;;5095912;28;20231;-62
2023/05/11 01:49:55;;;;;;;2.10;0.70;;;13.80;99.90;;;;;;5096309;28;20247;-65
2023/05/11 01:52:24;;;;;;;0.73;0.63;;;13.80;99.90;;;;;;5095554;28;20208;-64
2023/05/11 01:54:54;;;;;;;2.47;0.70;;;13.80;99.90;;;;;;5095891;28;20577;-65
2023/05/11 01:57:22;;;;;;;2.53;1.00;;;13.90;99.90;;;;;;5096194;28;20211;-65
2023/05/11 01:59:50;;;;;;;2.50;1.00;;;13.80;99.90;;;;;;5095688;28;20232;-65
2023/05/11 02:02:19;;;;;;;1.90;1.40;;;13.80;99.90;;;;;;5095470;28;20205;-65
2023/05/11 02:04:48;;;;;;;2.90;1.10;;;13.80;99.90;;;;;;5095723;28;20212;-64
2023/05/11 02:07:16;;;;;;;2.27;1.27;;;13.80;99.90;;;;;;5095471;28;20714;-64
2023/05/11 02:09:44;;;;;;;2.87;1.27;;;13.80;99.90;;;;;;5095738;28;20224;-64
2023/05/11 02:12:12;;;;;;;1.83;1.23;;;13.70;99.90;;;;;;5095361;28;20201;-64
2023/05/11 02:14:40;;;;;;;5.97;1.47;;;13.70;99.90;;;;;;5095545;28;20204;-64
2023/05/11 02:17:08;;;;;;;3.10;1.40;;;13.70;99.90;;;;;;5095209;28;20204;-64
2023/05/11 02:19:37;;;;;;;3.13;1.00;;;13.70;99.90;;;;;;5095054;28;20231;-64
2023/05/11 02:22:05;;;;;;;3.80;1.10;;;13.70;99.90;;;;;;5094994;28;20208;-64
2023/05/11 02:24:33;;;;;;;2.63;1.10;;;13.70;99.90;;;;;;5095622;28;20219;-63
2023/05/11 02:27:00;;;;;;;1.90;1.00;;;13.60;99.90;;;;;;5095259;28;20208;-63
2023/05/11 02:29:27;;;;;;;1.60;1.30;;;13.60;99.90;;;;;;5095063;28;20277;-65
2023/05/11 02:31:58;;;;;;;2.53;0.87;;;13.60;99.90;;;;;;5094905;28;20215;-65
2023/05/11 02:34:29;;;;;;;4.03;0.80;;;13.60;99.90;;;;;;5095434;28;20199;-65
2023/05/11 02:36:59;;;;;;;3.43;0.90;;;13.60;99.90;;;;;;5095276;28;20204;-65
2023/05/11 02:39:33;;;;;;;2.23;0.80;;;13.60;99.90;;;;;;5095073;28;20224;-65
2023/05/11 02:42:05;;;;;;;2.90;1.00;;;13.60;99.90;;;;;;5094833;28;20242;-65
2023/05/11 02:44:36;;;;;;;1.37;0.80;;;13.70;99.90;;;;;;5094749;28;20204;-65
2023/05/11 02:47:06;;;;;;;2.63;1.00;;;13.70;99.90;;;;;;5094664;28;20238;-64
2023/05/11 02:49:35;;;;;;;1.63;0.80;;;13.70;99.90;;;;;;5094398;28;20228;-65
2023/05/11 02:52:05;;;;;;;1.83;0.90;;;13.70;99.90;;;;;;5094720;28;20209;-65
2023/05/11 02:54:34;;;;;;;3.13;1.03;;;13.70;99.90;;;;;;5094785;28;20200;-65
2023/05/11 02:57:02;;;;;;;1.20;0.97;;;13.70;99.90;;;;;;5094605;28;20701;-65
2023/05/11 02:59:30;;;;;;;3.73;0.90;;;13.70;99.90;;;;;;5094334;28;20577;-64
2023/05/11 03:01:57;;;;;;;4.40;1.10;;;13.80;99.90;;;;;;5094473;28;20201;-64
2023/05/11 03:04:24;;;;;;;3.37;1.10;;;13.80;99.90;;;;;;5094636;28;20253;-64
2023/05/11 03:06:51;;;;;;;1.80;1.27;;;13.80;99.90;;;;;;5094418;28;20579;-64
2023/05/11 03:09:18;;;;;;;2.33;1.00;;;13.90;99.90;;;;;;5094329;28;20220;-65
2023/05/11 03:11:46;;;;;;;5.93;1.00;;;13.90;99.90;;;;;;5094085;28;20205;-65
2023/05/11 03:14:13;;;;;;;1.93;0.90;;;13.90;99.90;;;;;;5094481;28;20235;-65
2023/05/11 03:16:41;;;;;;;0.90;0.90;;;13.90;99.90;;;;;;5094321;28;20200;-65
2023/05/11 03:19:09;;;;;;;1.37;0.80;;;13.90;99.90;;;;;;5094312;28;20251;-64
2023/05/11 03:21:38;;;;;;;1.00;0.90;;;13.90;99.90;;;;;;5093914;28;20212;-64
2023/05/11 03:24:06;;;;;;;2.00;1.20;;;13.90;99.90;;;;;;5094085;28;20250;-64
2023/05/11 03:26:35;;;;;;;3.13;1.20;;;14.00;99.90;;;;;;5094088;28;20259;-65
2023/05/11 03:29:03;;;;;;;1.03;0.80;;;14.00;99.90;;;;;;5094073;28;20224;-65
2023/05/11 03:31:30;;;;;;;1.83;1.10;;;14.00;99.90;;;;;;5093625;28;20258;-64
2023/05/11 03:33:57;;;;;;;2.80;1.00;;;14.00;99.90;;;;;;5094326;28;20208;-65
2023/05/11 03:36:25;;;;;;;2.33;1.13;;;14.00;99.90;;;;;;5093869;28;20211;-66
2023/05/11 03:38:55;;;;;;;3.63;1.00;;;14.00;99.90;;;;;;5093730;28;20307;-65
2023/05/11 03:41:24;;;;;;;3.30;1.17;;;14.00;99.90;;;;;;5093767;28;20231;-65
2023/05/11 03:43:54;;;;;;;4.70;1.30;;;14.00;99.90;;;;;;5093983;28;20265;-66
2023/05/11 03:46:24;;;;;;;1.60;1.20;;;14.00;99.90;;;;;;5093788;28;20205;-65
2023/05/11 03:48:51;;;;;;;2.30;1.90;;;14.00;99.90;;;;;;5093536;28;20327;-64
2023/05/11 03:51:19;;;;;;;1.67;1.23;;;14.00;99.90;;;;;;5093443;28;20204;-66
2023/05/11 03:53:46;;;;;;;2.07;1.50;;;14.00;99.90;;;;;;5093589;28;20550;-65
2023/05/11 03:56:13;;;;;;;1.13;0.90;;;14.00;99.90;;;;;;5093608;28;20211;-65
2023/05/11 03:58:40;;;;;;;4.50;1.97;;;14.00;99.90;;;;;;5093301;28;20224;-64
2023/05/11 04:01:08;;;;;;;2.20;1.43;;;14.00;99.90;;;;;;5092593;28;20259;-65
2023/05/11 04:03:46;;;;;;;4.27;1.73;;;14.00;99.90;;;;;;5093581;28;20243;-65
2023/05/11 04:06:13;;;;;;;9.57;5.90;;;14.00;99.90;;;;;;5093491;28;20203;-65
2023/05/11 04:08:39;;;;;;;3.23;1.57;;;14.00;99.90;;;;;;5093442;28;20260;-66
2023/05/11 04:11:06;;;;;;;2.10;1.83;;;14.10;99.90;;;;;;5093115;28;20243;-66
2023/05/11 04:13:33;;;;;;;3.43;2.27;;;14.10;99.90;;;;;;5093091;28;20204;-65
2023/05/11 04:15:59;;;;;;;3.67;1.80;;;14.10;99.90;;;;;;5093349;28;20237;-65
2023/05/11 04:18:26;;;;;;;4.47;1.60;;;14.10;99.90;;;;;;5093013;28;20232;-65
2023/05/11 04:20:54;;;;;;;2.57;1.27;;;14.10;99.90;;;;;;5092623;28;20220;-66
2023/05/11 04:23:21;;;;;;;3.67;1.67;;;14.10;99.90;;;;;;5092839;28;20695;-64
2023/05/11 04:25:53;;;;;;;1.50;1.20;;;14.10;99.90;;;;;;5093196;28;20236;-67
2023/05/11 04:28:20;;;;;;;3.40;1.40;;;14.10;99.90;;;;;;5093065;28;20251;-65
2023/05/11 04:30:52;;;;;;;3.57;1.37;;;14.10;99.90;;;;;;5092603;28;20211;-64
2023/05/11 04:33:19;;;;;;;1.23;1.10;;;14.10;99.90;;;;;;5093122;28;20227;-65
2023/05/11 04:35:45;;;;;;;3.43;1.63;;;14.20;99.90;;;;;;5092945;28;20265;-65
2023/05/11 04:38:13;;;;;;;3.87;1.67;;;14.20;99.90;;;;;;5092717;28;20224;-65
2023/05/11 04:40:40;;;;;;;3.90;1.47;;;14.20;99.90;;;;;;5092451;28;20220;-65
2023/05/11 04:43:07;;;;;;;1.20;1.07;;;14.30;99.90;;;;;;5092585;28;20612;-65
2023/05/11 04:45:33;;;;;;;2.20;1.70;;;14.30;99.90;;;;;;5092578;28;20204;-65
2023/05/11 04:48:00;;;;;;;1.87;1.50;;;14.30;99.90;;;;;;5092499;28;20287;-65
2023/05/11 04:50:27;;;;;;;1.70;1.27;;;14.20;99.90;;;;;;5092714;28;20204;-65
2023/05/11 04:52:53;;;;;;;1.90;1.37;;;14.30;99.90;;;;;;5092162;28;20204;-66
2023/05/11 04:55:22;;;;;;;3.43;1.90;;;14.40;99.90;;;;;;5092518;28;20208;-65
2023/05/11 04:57:48;;;;;;;5.33;3.30;;;14.40;99.90;;;;;;5092065;28;20668;-65
2023/05/11 05:00:15;;;;;;;3.97;1.50;;;14.50;99.90;;;;;;5092224;28;20236;-65
2023/05/11 05:02:42;;;;;;;3.83;1.33;;;14.50;99.90;;;;;;5092211;28;20200;-65
2023/05/11 05:05:10;;;;;;;3.87;1.80;;;14.60;99.90;;;;;;5092411;28;20212;-65
2023/05/11 05:07:36;;;;;;;3.57;2.20;;;14.60;99.90;;;;;;5092499;28;20299;-65
2023/05/11 05:10:07;;;;;;;3.13;2.53;;;14.70;99.90;;;;;;5092504;28;20224;-65
2023/05/11 05:12:35;;;;;;;2.30;1.50;;;14.80;99.90;;;;;;5091548;28;20659;-65
2023/05/11 05:15:02;;;;;;;4.37;1.70;;;14.80;99.90;;;;;;5092124;28;20605;-65
2023/05/11 05:17:29;;;;;;;3.90;1.77;;;14.90;99.90;;;;;;5092329;28;20204;-64
2023/05/11 05:19:56;;;;;;;3.30;2.37;;;14.90;99.90;;;;;;5091969;28;20274;-64
2023/05/11 05:22:23;;;;;;;8.27;6.07;;;14.90;99.90;;;;;;5092060;28;20210;-62
2023/05/11 05:24:50;;;;;;;2.27;1.77;;;15.00;99.90;;;;;;5091856;28;20207;-65
2023/05/11 05:27:17;;;;;;;2.57;2.00;;;15.00;99.90;;;;;;5091709;28;20204;-65
2023/05/11 05:29:45;;;;;;;13.93;7.93;;;14.90;99.90;;;;;;5091920;28;20220;-65
2023/05/11 05:32:11;;;;;;;17.10;11.70;;;14.80;99.90;;;;;;5091915;28;20204;-65
2023/05/11 05:34:38;;;;;;;4.33;1.70;;;14.80;99.90;;;;;;5092052;28;20204;-65
2023/05/11 05:37:05;;;;;;;6.23;3.93;;;14.90;99.90;;;;;;5091704;28;20215;-65
2023/05/11 05:39:32;;;;;;;2.97;2.07;;;15.00;99.90;;;;;;5091556;28;20224;-66
2023/05/11 05:41:58;;;;;;;1.63;1.53;;;15.10;99.90;;;;;;5091520;28;20224;-66
2023/05/11 05:44:25;;;;;;;4.60;2.10;;;15.30;99.90;;;;;;5092067;28;20205;-65
2023/05/11 05:46:53;;;;;;;1.93;1.30;;;15.40;99.90;;;;;;5091626;28;20231;-65
2023/05/11 05:49:19;;;;;;;9.00;6.67;;;15.60;99.90;;;;;;5091691;28;20232;-65
2023/05/11 05:51:46;;;;;;;8.83;2.00;;;15.60;99.90;;;;;;5091576;28;20613;-65
2023/05/11 05:54:13;;;;;;;3.17;2.70;;;15.80;99.90;;;;;;5091658;28;20532;-65
2023/05/11 05:56:40;;;;;;;1.87;1.10;;;15.80;99.90;;;;;;5091962;28;20212;-65
2023/05/11 05:59:07;;;;;;;2.93;1.37;;;15.90;99.90;;;;;;5091792;28;20235;-65
2023/05/11 06:01:35;;;;;;;3.63;1.53;;;15.90;99.90;;;;;;5091412;28;20231;-65
2023/05/11 06:04:03;;;;;;;2.77;1.47;;;16.00;99.90;;;;;;5091577;28;20212;-65
2023/05/11 06:06:30;;;;;;;4.10;2.10;;;16.10;99.90;;;;;;5091855;28;20683;-66
2023/05/11 06:08:57;;;;;;;2.80;1.50;;;16.10;99.90;;;;;;5094304;28;20235;-65
2023/05/11 06:11:23;;;;;;;2.07;1.57;;;16.20;99.90;;;;;;5096424;28;20205;-65
2023/05/11 06:13:50;;;;;;;3.23;1.50;;;16.20;99.90;;;;;;5098860;28;20204;-65
2023/05/11 06:16:17;;;;;;;1.77;1.20;;;16.30;99.90;;;;;;5100958;28;20216;-66
2023/05/11 06:18:43;;;;;;;11.73;7.37;;;16.30;99.90;;;;;;5099448;28;20230;-66
2023/05/11 06:21:11;;;;;;;1.83;1.50;;;16.50;99.90;;;;;;5091588;28;20570;-66
2023/05/11 06:23:38;;;;;;;2.65;1.23;;;16.60;99.90;;;;;;5094148;28;20208;-66
2023/05/11 06:26:05;;;;;;;3.40;1.53;;;16.70;99.90;;;;;;5097521;28;20253;-66
2023/05/11 06:28:31;;;;;;;2.78;1.95;;;16.70;99.90;;;;;;5096750;28;20228;-66
2023/05/11 06:30:58;;;;;;;1.73;1.30;;;16.70;99.90;;;;;;5095260;28;20565;-64
2023/05/11 06:33:25;;;;;;;1.92;1.40;;;16.60;99.90;;;;;;5094147;28;20281;-64
2023/05/11 06:35:52;;;;;;;2.47;1.92;;;16.10;99.90;;;;;;5091197;28;20631;-65
2023/05/11 06:38:20;;;;;;;2.00;1.50;;;15.90;99.90;;;;;;5093332;28;20389;-65
2023/05/11 06:40:47;;;;;;;1.52;1.17;;;16.00;99.90;;;;;;5094274;28;20232;-62
2023/05/11 06:43:13;;;;;;;3.87;1.83;;;16.00;99.90;;;;;;5094096;28;20215;-63
2023/05/11 06:45:40;;;;;;;2.50;1.52;;;16.10;99.90;;;;;;5093477;28;20212;-63
2023/05/11 06:48:07;;;;;;;2.00;1.33;;;16.30;99.90;;;;;;5092788;28;20236;-64
2023/05/11 06:50:34;;;;;;;1.80;1.40;;;16.30;99.90;;;;;;5082334;28;20212;-64
2023/05/11 06:53:01;;;;;;;1.83;1.38;;;16.40;99.90;;;;;;5092294;28;20667;-64
2023/05/11 06:55:29;;;;;;;4.03;2.55;;;16.50;99.90;;;;;;5091923;28;20208;-62
2023/05/11 06:57:56;;;;;;;2.47;1.50;;;16.40;99.90;;;;;;5091811;28;20261;-63
2023/05/11 07:00:23;;;;;;;1.38;1.25;;;16.40;99.90;;;;;;5092329;28;20668;-64
2023/05/11 07:02:50;;;;;;;2.10;1.50;;;16.40;99.90;;;;;;5092539;28;20249;-65
2023/05/11 07:05:16;;;;;;;2.67;1.70;;;16.50;99.90;;;;;;5092695;28;20216;-62
2023/05/11 07:07:43;;;;;;;1.65;1.45;;;16.50;99.90;;;;;;5093269;28;20292;-62
2023/05/11 07:10:10;;;;;;;1.88;1.58;;;16.60;99.90;;;;;;5093625;28;20204;-64
2023/05/11 07:12:38;;;;;;;2.90;1.48;;;16.70;99.90;;;;;;5092845;28;20501;-64
2023/05/11 07:15:06;;;;;;;2.55;1.70;;;16.70;99.90;;;;;;5092333;28;20614;-62
2023/05/11 07:17:33;;;;;;;1.75;1.52;;;16.70;99.90;;;;;;5092016;28;20291;-64
2023/05/11 07:19:59;;;;;;;1.88;1.70;;;16.70;99.90;;;;;;5091082;28;20228;-64
2023/05/11 07:22:26;;;;;;;1.55;1.38;;;16.80;99.90;;;;;;5093150;28;20256;-63
2023/05/11 07:24:53;;;;;;;2.85;1.70;;;16.80;99.90;;;;;;5093458;28;20211;-65
2023/05/11 07:27:20;;;;;;;3.88;2.10;;;16.90;99.90;;;;;;5093200;28;20680;-63
2023/05/11 07:29:48;;;;;;;3.30;1.50;;;17.00;99.90;;;;;;5091334;28;20602;-64
2023/05/11 07:32:14;;;;;;;3.17;1.95;;;17.10;99.90;;;;;;5091191;28;20669;-66
2023/05/11 07:34:41;;;;;;;3.17;1.73;;;17.20;99.90;;;;;;5091711;28;20639;-63
2023/05/11 07:37:08;;;;;;;3.20;2.20;;;17.30;99.90;;;;;;5092856;28;20683;-64
2023/05/11 07:39:34;;;;;;;10.85;9.77;;;17.40;99.90;;;;;;5092572;28;20235;-61
2023/05/11 07:42:01;;;;;;;3.13;1.80;;;17.50;99.90;;;;;;5092611;28;20761;-63
2023/05/11 07:44:27;;;;;;;5.75;2.25;;;17.60;99.90;;;;;;5092520;28;20203;-62
2023/05/11 07:46:57;;;;;;;4.53;2.80;;;17.50;99.90;;;;;;5092698;28;20215;-61
2023/05/11 07:49:23;;;;;;;3.00;1.80;;;17.60;99.90;;;;;;5098712;22;20239;-60
2023/05/11 07:51:51;;;;;;;5.00;1.90;;;17.70;99.90;;;;;;5074732;28;20201;-61
2023/05/11 07:54:18;;;;;;;3.20;1.90;;;17.50;99.90;;;;;;5074166;28;20362;-61
2023/05/11 07:56:45;;;;;;;2.55;1.98;;;17.50;99.90;;;;;;5073561;28;20220;-60
2023/05/11 07:59:11;;;;;;;5.28;2.05;;;17.50;99.90;;;;;;5073138;28;20225;-62
2023/05/11 08:01:38;;;;;;;2.92;1.52;;;17.30;99.90;;;;;;5073201;28;20231;-60
2023/05/11 08:04:06;;;;;;;2.30;1.58;;;17.30;99.90;;;;;;5073319;28;20205;-60
2023/05/11 08:06:33;;;;;;;3.20;1.52;;;17.30;99.90;;;;;;5073528;28;20656;-60
2023/05/11 08:09:00;;;;;;;2.20;1.50;;;17.30;99.90;;;;;;5072951;28;20225;-62
2023/05/11 08:11:27;;;;;;;4.07;1.70;;;17.40;99.90;;;;;;5074003;28;20558;-62
2023/05/11 08:13:53;;;;;;;3.00;2.15;;;17.40;99.90;;;;;;5074066;28;20213;-62
2023/05/11 08:16:20;;;;;;;3.05;1.98;;;17.40;99.90;;;;;;5073428;28;20209;-61
2023/05/11 08:18:47;;;;;;;2.20;1.73;;;17.30;99.90;;;;;;5072833;28;20236;-62
2023/05/11 08:21:16;;;;;;;4.63;1.70;;;17.50;99.90;;;;;;5073004;28;20224;-62
2023/05/11 08:23:43;;;;;;;3.47;1.80;;;17.80;99.90;;;;;;5073151;28;20216;-62
2023/05/11 08:26:10;;;;;;;2.33;1.80;;;17.90;99.90;;;;;;5073124;28;20200;-61
2023/05/11 08:28:36;;;;;;;3.08;1.83;;;17.90;99.90;;;;;;5072528;28;20236;-61
2023/05/11 08:31:04;;;;;;;5.50;4.13;;;18.10;99.90;;;;;;5072346;28;20394;-62
2023/05/11 08:33:31;;;;;;;2.22;1.48;;;18.40;99.90;;;;;;5073071;28;20212;-62
2023/05/11 08:35:58;;;;;;;3.83;1.77;;;18.50;99.90;;;;;;5072380;28;20209;-64
2023/05/11 08:38:26;;;;;;;3.35;1.83;;;18.60;99.90;;;;;;5072833;28;20225;-62
2023/05/11 08:40:53;;;;;;;2.25;1.70;;;18.60;99.90;;;;;;5073128;28;20300;-64
2023/05/11 08:43:20;;;;;;;4.13;1.75;;;18.40;99.90;;;;;;5072958;28;20227;-62
2023/05/11 08:45:51;;;;;;;2.20;2.00;;;17.80;99.90;;;;;;5072585;28;20204;-61
2023/05/11 08:48:19;;;;;;;2.15;1.70;;;17.50;99.90;;;;;;5072441;28;20212;-62
2023/05/11 08:50:47;;;;;;;2.33;1.77;;;17.40;99.90;;;;;;5073216;28;20228;-63
2023/05/11 08:53:14;;;;;;;2.67;1.77;;;17.40;99.90;;;;;;5073143;28;20680;-63
2023/05/11 08:55:43;;;;;;;2.05;1.60;;;17.70;99.90;;;;;;5071964;28;20665;-63
2023/05/11 08:58:13;;;;;;;1.73;1.60;;;17.90;99.90;;;;;;5072513;28;20205;-63
2023/05/11 09:00:41;;;;;;;2.38;1.83;;;18.20;99.90;;;;;;5074042;28;20240;-63
2023/05/11 09:03:09;;;;;;;14.13;11.40;;;18.10;99.90;;;;;;5073375;28;20712;-63
2023/05/11 09:05:38;;;;;;;3.10;2.30;;;18.00;99.90;;;;;;5073495;28;20291;-63
2023/05/11 09:08:07;;;;;;;3.10;2.00;;;18.10;99.90;;;;;;5072841;28;20709;-62
2023/05/11 09:10:35;;;;;;;3.03;1.95;;;18.30;99.90;;;;;;5073810;28;20208;-62
2023/05/11 09:13:04;;;;;;;2.28;1.60;;;18.40;99.90;;;;;;5073238;28;20197;-63
2023/05/11 09:15:31;;;;;;;2.28;1.88;;;18.50;99.90;;;;;;5073285;28;20581;-62
2023/05/11 09:17:58;;;;;;;3.20;1.92;;;18.60;99.90;;;;;;5073335;28;20209;-63
2023/05/11 09:20:28;;;;;;;6.05;1.80;;;18.80;99.90;;;;;;5073085;28;20228;-63
2023/05/11 09:22:56;;;;;;;2.78;1.73;;;19.20;99.90;;;;;;5072797;28;20787;-62
2023/05/11 09:25:24;;;;;;;3.00;1.80;;;19.40;99.90;;;;;;5073090;28;20205;-63
2023/05/11 09:27:52;;;;;;;4.85;1.55;;;19.30;99.90;;;;;;5073483;28;20577;-62
2023/05/11 09:30:22;;;;;;;2.00;1.80;;;19.40;99.90;;;;;;5072966;28;20229;-63
2023/05/11 09:32:51;;;;;;;16.17;13.02;;;19.20;99.90;;;;;;5072793;28;20201;-62
2023/05/11 09:35:23;;;;;;;2.63;1.90;;;18.80;99.90;;;;;;5072892;28;20213;-61
2023/05/11 09:38:04;;;;;;;3.25;1.77;;;18.70;99.90;;;;;;5073388;28;20251;-62
2023/05/11 09:40:33;;;;;;;2.10;1.77;;;18.60;99.90;;;;;;5073732;28;20208;-62
2023/05/11 09:43:01;;;;;;;3.80;1.77;;;18.50;99.90;;;;;;5072654;28;20228;-61
2023/05/11 09:45:39;;;;;;;2.65;1.80;;;18.20;99.90;;;;;;5073271;28;20205;-62
2023/05/11 09:48:13;;;;;;;2.10;1.58;;;18.20;99.90;;;;;;5073355;28;20232;-62
2023/05/11 09:50:40;;;;;;;2.55;1.80;;;18.60;99.90;;;;;;5072996;28;20247;-61
2023/05/11 09:53:06;;;;;;;2.65;1.75;;;18.90;99.90;;;;;;5072825;28;20205;-62
2023/05/11 09:55:33;;;;;;;1.50;1.40;;;19.00;99.90;;;;;;5072642;28;20660;-62
2023/05/11 09:58:01;;;;;;;3.75;1.88;;;19.00;99.90;;;;;;5074034;28;20230;-62
2023/05/11 10:00:27;;;;;;;2.20;1.70;;;18.70;99.90;;;;;;5077062;28;20225;-62
2023/05/11 10:03:03;;;;;;;4.50;1.70;;;18.50;99.90;;;;;;5077070;28;20282;-61
2023/05/11 10:05:31;;;;;;;2.75;2.00;;;18.40;99.90;;;;;;5077187;28;20212;-61
2023/05/11 10:07:59;;;;;;;5.25;1.75;;;18.50;99.90;;;;;;5076487;28;20209;-62
2023/05/11 10:10:28;;;;;;;2.33;1.67;;;18.80;99.90;;;;;;5076301;28;20231;-62
2023/05/11 10:12:55;;;;;;;2.55;1.88;;;19.00;99.90;;;;;;5076743;28;20201;-62
2023/05/11 10:15:25;;;;;;;2.97;2.40;;;18.90;99.90;;;;;;5077224;28;20208;-62
2023/05/11 10:17:53;;;;;;;2.47;1.60;;;18.70;99.90;;;;;;5076965;28;20204;-62
2023/05/11 10:20:22;;;;;;;2.63;1.63;;;18.60;99.90;;;;;;5076528;28;20323;-62
2023/05/11 10:22:51;;;;;;;3.50;1.50;;;18.50;99.90;;;;;;5076048;28;20769;-61
2023/05/11 10:25:19;;;;;;;3.20;1.73;;;18.40;99.90;;;;;;5076406;28;20291;-62
2023/05/11 10:27:46;;;;;;;2.85;1.45;;;18.40;99.90;;;;;;5076344;28;20216;-63
2023/05/11 10:30:14;;;;;;;2.28;1.80;;;18.70;99.90;;;;;;5076508;28;20319;-63
2023/05/11 10:32:41;;;;;;;1.83;1.45;;;18.80;99.90;;;;;;5076532;28;20208;-63
2023/05/11 10:35:08;;;;;;;2.20;1.42;;;18.80;99.90;;;;;;5076983;28;20212;-62
2023/05/11 10:37:37;;;;;;;1.98;1.50;;;18.40;99.90;;;;;;5076713;28;20748;-62
2023/05/11 10:40:05;;;;;;;2.72;1.58;;;18.10;99.90;;;;;;5077627;28;20225;-62
2023/05/11 10:42:50;;;;;;;2.30;1.75;;;18.20;99.90;;;;;;5077129;28;20225;-62
2023/05/11 10:45:22;;;;;;;1.27;1.10;;;18.40;99.90;;;;;;5076887;28;20205;-61
2023/05/11 10:48:19;;;;;;;4.18;2.67;;;18.50;99.90;;;;;;5075775;28;20228;-60
2023/05/11 10:50:58;;;;;;;2.47;1.02;;;18.50;99.90;;;;;;5074950;28;20220;-61
2023/05/11 10:53:39;;;;;;;2.55;1.20;;;18.70;99.90;;;;;;5077300;28;20220;-60
2023/05/11 10:56:34;;;;;;;3.13;1.50;;;18.60;99.90;;;;;;5076530;28;20205;-61
2023/05/11 10:59:20;;;;;;;2.35;1.30;;;18.60;99.90;;;;;;5076887;28;20260;-61
2023/05/11 11:01:50;;;;;;;1.70;1.10;;;18.70;99.90;;;;;;5076079;28;20315;-61
2023/05/11 11:04:19;;;;;;;1.25;0.85;;;18.50;99.90;;;;;;5076419;28;20496;-61
2023/05/11 11:06:46;;;;;;;1.13;0.88;;;18.30;99.90;;;;;;5076053;28;20211;-61
2023/05/11 11:09:16;;;;;;;1.27;0.70;;;18.30;99.90;;;;;;5075626;28;20224;-61
2023/05/11 11:11:45;;;;;;;1.85;1.23;;;18.40;99.90;;;;;;5076035;28;20204;-61
2023/05/11 11:14:13;;;;;;;2.20;1.33;;;18.50;99.90;;;;;;5076040;28;20263;-60
2023/05/11 11:16:41;;;;;;;2.35;2.10;;;18.90;99.90;;;;;;5076014;28;20289;-60
2023/05/11 11:19:37;;;;;;;2.83;0.77;;;19.00;99.90;;;;;;5075889;28;20221;-60
2023/05/11 11:22:04;;;;;;;1.70;0.90;;;19.00;99.90;;;;;;5075692;28;20227;-61
2023/05/11 11:24:47;;;;;;;2.75;1.10;;;19.10;99.90;;;;;;5075962;28;20205;-63
2023/05/11 11:27:15;;;;;;;0.80;0.57;;;19.20;99.90;;;;;;5073898;28;20209;-62
2023/05/11 11:30:02;;;;;;;1.30;0.65;;;19.10;99.90;;;;;;5075787;28;20225;-64
2023/05/11 11:32:28;;;;;;;1.77;0.90;;;19.30;99.90;;;;;;5075405;28;20236;-61
2023/05/11 11:34:55;;;;;;;0.75;0.70;;;19.50;99.90;;;;;;5075978;28;20209;-61
2023/05/11 11:37:23;;;;;;;1.85;0.80;;;19.60;99.90;;;;;;5075887;28;20204;-61
2023/05/11 11:40:03;;;;;;;3.58;0.90;;;19.40;99.90;;;;;;5075481;28;20266;-61
2023/05/11 11:42:36;;;;;;;0.85;0.70;;;19.50;99.90;;;;;;5074990;28;20255;-62
2023/05/11 11:45:26;;;;;;;1.73;0.80;;;19.60;99.90;;;;;;5076045;28;20255;-62
2023/05/11 11:48:07;;;;;;;1.67;0.80;;;19.70;99.90;;;;;;5075552;28;20235;-60
2023/05/11 11:50:34;;;;;;;2.10;1.38;;;19.90;99.90;;;;;;5075492;28;20562;-63
2023/05/11 11:53:01;;;;;;;3.70;2.08;;;20.20;99.90;;;;;;5075566;28;20570;-65
2023/05/11 11:55:49;;;;;;;1.58;1.10;;;20.10;99.90;;;;;;5076173;28;20243;-61
2023/05/11 11:58:54;;;;;;;1.90;0.85;;;19.90;99.90;;;;;;5076049;28;20189;-62
2023/05/11 12:01:24;;;;;;;0.85;0.70;;;19.70;99.90;;;;;;5076124;28;20217;-61
2023/05/11 12:04:10;;;;;;;1.67;1.05;;;19.30;99.90;;;;;;5075793;28;20228;-62
2023/05/11 12:06:39;;;;;;;1.58;0.90;;;19.40;99.90;;;;;;5076220;28;20291;-61
2023/05/11 12:09:06;;;;;;;2.35;1.00;;;19.60;99.90;;;;;;5075713;28;20229;-62
2023/05/11 12:11:34;;;;;;;1.40;1.02;;;19.70;99.90;;;;;;5076016;28;20213;-63
2023/05/11 12:14:02;;;;;;;3.60;0.70;;;19.80;99.90;;;;;;5076913;28;20279;-63
2023/05/11 12:16:30;;;;;;;1.23;0.82;;;19.70;99.90;;;;;;5076625;28;20554;-62
2023/05/11 12:18:59;;;;;;;2.92;1.00;;;19.50;99.90;;;;;;5075730;28;20232;-62
2023/05/11 12:21:30;;;;;;;2.15;0.90;;;19.40;99.90;;;;;;5074791;28;20295;-62
2023/05/11 12:23:59;;;;;;;1.75;1.45;;;19.60;99.90;;;;;;5076345;28;20229;-64
2023/05/11 12:26:27;;;;;;;3.70;1.10;;;19.80;99.90;;;;;;5076039;28;20300;-62
2023/05/11 12:29:08;;;;;;;2.20;1.17;;;19.80;99.90;;;;;;5075942;28;20315;-60
2023/05/11 12:31:35;;;;;;;1.00;0.90;;;20.00;99.90;;;;;;5074981;28;20201;-61
2023/05/11 12:34:02;;;;;;;1.88;1.10;;;19.90;99.90;;;;;;5074908;28;20205;-60
2023/05/11 12:36:30;;;;;;;1.42;1.30;;;19.80;99.90;;;;;;5073847;28;20211;-61
2023/05/11 12:38:57;;;;;;;2.35;1.30;;;19.90;99.90;;;;;;5075106;28;20225;-60
2023/05/11 12:41:24;;;;;;;0.77;0.75;;;20.00;99.90;;;;;;5074002;28;20291;-60
2023/05/11 12:43:52;;;;;;;0.88;0.77;;;20.10;99.90;;;;;;5074058;28;20228;-60
2023/05/11 12:46:21;;;;;;;19.02;15.02;;;20.20;99.90;;;;;;5074831;28;20291;-61
2023/05/11 12:48:50;;;;;;;1.08;0.88;;;19.90;99.90;;;;;;5074264;28;20228;-61
2023/05/11 12:51:42;;;;;;;2.60;0.85;;;20.10;99.90;;;;;;5074568;28;20207;-61
2023/05/11 12:54:09;;;;;;;0.98;0.88;;;19.90;99.90;;;;;;5074308;28;20682;-61
2023/05/11 12:56:45;;;;;;;0.93;0.80;;;19.80;99.90;;;;;;5074707;28;20208;-61